Time;durP1;ratioP1;P1;durP2;ratioP2;P2;SDS_P1;SDS_P2;PMS_P1;PMS_P2;Temp;Humidity;BMP_temperature;BMP_pressure;BME280_temperature;BME280_humidity;BME280_pressure;Samples;Min_cycle;Max_cycle;Signal;HPM_P1;HPM_P2
2023/09/27 00:01:37;;;;;;;9.18;6.78;;;14.80;93.20;;;;;;4989117;28;20026;-74
2023/09/27 00:04:03;;;;;;;9.43;7.18;;;14.90;92.90;;;;;;4981944;28;20033;-74
2023/09/27 00:06:28;;;;;;;8.52;6.57;;;15.00;92.50;;;;;;4982169;28;20042;-74
2023/09/27 00:08:54;;;;;;;10.20;6.57;;;15.00;92.30;;;;;;4991988;28;20036;-74
2023/09/27 00:11:19;;;;;;;9.63;6.95;;;14.80;92.40;;;;;;4988321;28;20499;-74
2023/09/27 00:13:45;;;;;;;12.27;6.65;;;14.80;92.60;;;;;;4999885;28;20057;-74
2023/09/27 00:16:10;;;;;;;9.55;6.32;;;14.60;93.00;;;;;;5000924;28;20062;-75
2023/09/27 00:18:36;;;;;;;7.10;5.40;;;14.50;93.00;;;;;;4992562;28;20040;-74
2023/09/27 00:21:01;;;;;;;8.38;5.78;;;14.50;93.50;;;;;;4998718;28;20060;-74
2023/09/27 00:23:26;;;;;;;11.25;5.97;;;14.40;93.60;;;;;;5003206;28;20048;-74
2023/09/27 00:25:52;;;;;;;9.38;6.00;;;14.40;93.60;;;;;;4991602;28;20458;-74
2023/09/27 00:28:17;;;;;;;7.80;5.93;;;14.40;93.90;;;;;;4987306;28;20044;-76
2023/09/27 00:30:43;;;;;;;8.57;6.00;;;14.30;93.90;;;;;;4985668;28;20039;-74
2023/09/27 00:33:08;;;;;;;9.57;6.43;;;14.30;93.90;;;;;;4991588;28;20038;-74
2023/09/27 00:35:34;;;;;;;11.65;6.65;;;14.30;94.00;;;;;;4991043;28;20034;-74
2023/09/27 00:37:59;;;;;;;9.38;6.90;;;14.30;94.00;;;;;;4993365;28;20038;-74
2023/09/27 00:40:25;;;;;;;8.60;6.78;;;14.20;94.00;;;;;;4992035;28;20149;-74
2023/09/27 00:42:51;;;;;;;9.15;6.50;;;14.20;94.00;;;;;;4986712;28;20041;-74
2023/09/27 00:45:17;;;;;;;11.20;5.90;;;14.20;94.10;;;;;;4987795;28;20459;-74
2023/09/27 00:47:43;;;;;;;8.45;5.82;;;14.20;94.30;;;;;;4999292;28;20105;-74
2023/09/27 00:50:09;;;;;;;8.57;6.30;;;14.10;94.20;;;;;;4994091;28;20118;-74
2023/09/27 00:52:39;;;;;;;8.68;6.57;;;14.10;94.60;;;;;;4996144;28;20042;-74
2023/09/27 00:55:07;;;;;;;8.52;6.65;;;14.00;94.40;;;;;;4988139;28;20534;-74
2023/09/27 00:57:34;;;;;;;9.93;6.63;;;14.00;94.40;;;;;;4987914;28;20344;-74
2023/09/27 01:00:00;;;;;;;8.98;6.90;;;14.00;94.70;;;;;;4981627;28;20052;-74
2023/09/27 01:02:25;;;;;;;11.27;7.15;;;13.90;94.80;;;;;;4991091;28;20125;-74
2023/09/27 01:04:52;;;;;;;9.40;6.78;;;13.90;94.90;;;;;;4989029;28;20034;-76
2023/09/27 01:07:18;;;;;;;9.52;6.88;;;13.80;94.80;;;;;;4989714;28;20074;-76
2023/09/27 01:09:43;;;;;;;9.68;7.32;;;13.70;94.70;;;;;;4986948;28;20052;-74
2023/09/27 01:12:09;;;;;;;11.70;7.55;;;13.70;94.90;;;;;;4989101;28;20391;-74
2023/09/27 01:14:34;;;;;;;14.48;8.45;;;13.80;95.20;;;;;;4989491;28;20439;-77
2023/09/27 01:17:09;;;;;;;11.30;8.25;;;13.80;95.30;;;;;;4989488;28;20031;-74
2023/09/27 01:19:35;;;;;;;10.88;8.10;;;13.80;95.50;;;;;;4988553;28;20106;-74
2023/09/27 01:22:01;;;;;;;12.10;8.63;;;14.00;95.40;;;;;;4998266;28;20113;-75
2023/09/27 01:24:27;;;;;;;10.15;7.82;;;13.90;95.30;;;;;;4989870;28;20030;-74
2023/09/27 01:26:55;;;;;;;9.95;7.35;;;13.80;95.00;;;;;;4987378;28;20026;-74
2023/09/27 01:29:20;;;;;;;10.63;7.20;;;13.60;95.00;;;;;;4989650;28;20117;-74
2023/09/27 01:31:46;;;;;;;9.18;7.07;;;13.50;95.00;;;;;;4990371;28;20547;-74
2023/09/27 01:34:11;;;;;;;11.15;7.45;;;13.50;95.30;;;;;;4991433;28;20041;-74
2023/09/27 01:36:36;;;;;;;10.25;7.03;;;13.30;95.50;;;;;;4985130;28;20038;-75
2023/09/27 01:39:02;;;;;;;8.75;6.45;;;13.20;95.70;;;;;;4991639;28;20045;-74
2023/09/27 01:41:28;;;;;;;9.02;6.85;;;13.10;95.60;;;;;;4987773;28;20112;-75
2023/09/27 01:43:53;;;;;;;10.75;6.97;;;13.10;95.60;;;;;;4980393;28;20031;-74
2023/09/27 01:46:18;;;;;;;9.05;6.03;;;13.00;95.70;;;;;;4989436;28;20042;-74
2023/09/27 01:48:44;;;;;;;9.70;6.40;;;12.90;95.90;;;;;;4992856;28;20035;-74
2023/09/27 01:51:09;;;;;;;11.30;6.38;;;13.00;96.20;;;;;;4987324;28;20070;-74
2023/09/27 01:53:35;;;;;;;9.63;6.55;;;12.80;96.20;;;;;;4978467;28;20065;-74
2023/09/27 01:56:02;;;;;;;9.82;6.63;;;12.80;96.30;;;;;;4989604;28;20042;-75
2023/09/27 01:58:28;;;;;;;12.10;6.88;;;12.80;96.50;;;;;;4989749;28;20037;-74
2023/09/27 02:00:53;;;;;;;11.50;7.10;;;12.90;96.80;;;;;;4988050;28;20119;-74
2023/09/27 02:03:19;;;;;;;9.18;7.00;;;12.80;96.60;;;;;;4991316;28;20061;-74
2023/09/27 02:05:44;;;;;;;10.57;7.35;;;12.70;96.60;;;;;;4987027;28;20467;-74
2023/09/27 02:08:11;;;;;;;11.90;7.20;;;12.70;96.60;;;;;;4989322;28;20062;-74
2023/09/27 02:10:37;;;;;;;10.55;6.70;;;12.70;96.80;;;;;;4987242;28;20022;-74
2023/09/27 02:13:03;;;;;;;9.90;6.82;;;12.70;96.90;;;;;;4987753;28;20395;-74
2023/09/27 02:15:29;;;;;;;10.25;7.25;;;12.60;96.80;;;;;;4990812;28;20069;-74
2023/09/27 02:17:54;;;;;;;9.77;6.15;;;12.60;97.10;;;;;;4997289;28;20118;-75
2023/09/27 02:20:20;;;;;;;8.98;6.78;;;12.50;97.00;;;;;;4991195;28;20034;-74
2023/09/27 02:22:49;;;;;;;10.05;7.18;;;12.50;97.00;;;;;;4996194;28;20034;-74
2023/09/27 02:25:16;;;;;;;10.93;7.13;;;12.50;97.10;;;;;;4992459;28;20549;-75
2023/09/27 02:27:42;;;;;;;13.27;7.57;;;12.50;97.10;;;;;;4986768;28;20042;-74
2023/09/27 02:30:13;;;;;;;10.32;7.70;;;12.60;97.40;;;;;;4988902;28;20665;-73
2023/09/27 02:32:42;;;;;;;11.80;8.25;;;12.60;97.40;;;;;;4990455;28;20117;-74
2023/09/27 02:35:09;;;;;;;13.95;8.63;;;12.70;97.60;;;;;;4983353;28;20070;-74
2023/09/27 02:37:36;;;;;;;11.73;9.15;;;12.70;97.50;;;;;;4991922;28;20031;-74
2023/09/27 02:40:11;;;;;;;13.15;8.60;;;12.90;97.50;;;;;;4994612;28;20117;-73
2023/09/27 02:42:48;;;;;;;12.80;9.65;;;13.00;97.90;;;;;;4985633;28;20038;-74
2023/09/27 02:45:14;;;;;;;13.10;9.50;;;13.00;97.60;;;;;;4988724;28;20049;-74
2023/09/27 02:47:43;;;;;;;13.07;9.85;;;13.00;97.60;;;;;;4987591;28;20038;-74
2023/09/27 02:50:10;;;;;;;14.23;9.57;;;13.00;97.80;;;;;;4988992;28;20602;-75
2023/09/27 02:52:36;;;;;;;15.10;9.48;;;13.00;97.60;;;;;;4989585;28;20468;-74
2023/09/27 02:55:01;;;;;;;12.07;9.65;;;12.90;97.20;;;;;;4986521;28;20390;-74
2023/09/27 02:57:27;;;;;;;14.88;10.93;;;12.90;97.30;;;;;;4980943;28;20046;-75
2023/09/27 02:59:52;;;;;;;12.65;9.32;;;13.00;97.60;;;;;;4985764;28;20545;-76
2023/09/27 03:02:20;;;;;;;12.43;9.85;;;13.00;97.40;;;;;;4986941;28;20043;-74
2023/09/27 03:04:47;;;;;;;15.10;10.27;;;13.00;97.70;;;;;;4987450;28;20052;-74
2023/09/27 03:07:14;;;;;;;14.60;9.45;;;13.10;97.60;;;;;;4987304;28;20048;-75
2023/09/27 03:09:39;;;;;;;16.55;10.45;;;13.00;97.40;;;;;;4992592;28;20065;-74
2023/09/27 03:12:06;;;;;;;14.20;9.23;;;13.00;97.60;;;;;;4986729;28;20062;-74
2023/09/27 03:14:32;;;;;;;12.93;9.80;;;13.10;97.40;;;;;;4983539;28;20451;-74
2023/09/27 03:16:59;;;;;;;14.15;10.23;;;13.00;97.50;;;;;;4982891;28;20110;-74
2023/09/27 03:19:24;;;;;;;13.77;10.10;;;13.00;97.40;;;;;;4985014;28;20061;-75
2023/09/27 03:21:51;;;;;;;13.18;9.60;;;13.10;97.60;;;;;;4986892;28;20070;-74
2023/09/27 03:24:17;;;;;;;15.30;10.07;;;13.00;97.40;;;;;;4987651;28;20038;-74
2023/09/27 03:26:48;;;;;;;13.77;9.93;;;13.00;97.30;;;;;;5060353;28;20378;-74
2023/09/27 03:29:14;;;;;;;14.50;9.95;;;13.10;97.60;;;;;;5043513;28;20515;-76
2023/09/27 03:31:39;;;;;;;15.15;9.77;;;13.10;97.60;;;;;;5046022;28;20075;-74
2023/09/27 03:34:05;;;;;;;14.75;10.48;;;13.10;97.60;;;;;;5048808;28;20037;-74
2023/09/27 03:36:30;;;;;;;15.65;10.60;;;13.00;97.30;;;;;;5045125;28;20071;-74
2023/09/27 03:38:56;;;;;;;14.90;10.52;;;13.00;97.50;;;;;;5046600;28;20022;-74
2023/09/27 03:41:22;;;;;;;14.30;10.27;;;13.00;97.70;;;;;;5042948;28;20029;-74
2023/09/27 03:43:50;;;;;;;13.32;10.07;;;13.00;97.70;;;;;;5044329;28;20025;-74
2023/09/27 03:46:15;;;;;;;13.73;9.30;;;13.00;97.60;;;;;;5044256;28;20581;-74
2023/09/27 03:48:41;;;;;;;15.15;9.85;;;12.90;97.80;;;;;;5045689;28;20119;-74
2023/09/27 03:51:06;;;;;;;15.38;10.63;;;13.00;97.80;;;;;;5043342;28;20111;-75
2023/09/27 03:53:33;;;;;;;13.32;10.00;;;12.90;97.70;;;;;;5036701;28;20529;-74
2023/09/27 03:55:59;;;;;;;13.95;9.35;;;12.90;97.80;;;;;;5042221;28;20083;-75
2023/09/27 03:58:24;;;;;;;13.18;9.73;;;12.90;97.80;;;;;;5031919;28;20493;-74
2023/09/27 04:00:50;;;;;;;23.20;8.68;;;12.80;97.60;;;;;;5034609;28;20047;-74
2023/09/27 04:03:16;;;;;;;14.88;9.52;;;12.70;97.60;;;;;;5044466;28;20458;-75
2023/09/27 04:05:42;;;;;;;12.70;9.75;;;12.60;97.70;;;;;;5041381;28;20093;-74
2023/09/27 04:08:07;;;;;;;12.52;8.70;;;12.60;97.80;;;;;;5038727;28;20068;-73
2023/09/27 04:10:33;;;;;;;14.60;10.35;;;12.60;97.80;;;;;;5038489;28;20045;-74
2023/09/27 04:12:59;;;;;;;14.30;9.35;;;12.60;97.90;;;;;;5041576;28;20021;-74
2023/09/27 04:15:25;;;;;;;18.13;10.32;;;12.60;98.00;;;;;;5030756;28;20034;-74
2023/09/27 04:17:50;;;;;;;12.98;9.40;;;12.70;98.40;;;;;;5040351;28;20088;-74
2023/09/27 04:20:19;;;;;;;15.60;10.63;;;12.60;98.10;;;;;;5044498;28;20029;-76
2023/09/27 04:22:47;;;;;;;13.07;10.00;;;12.70;98.50;;;;;;5040913;28;20116;-74
2023/09/27 04:25:13;;;;;;;14.23;9.50;;;12.70;98.20;;;;;;5044914;28;20115;-74
2023/09/27 04:27:42;;;;;;;14.80;10.85;;;12.70;98.30;;;;;;5038627;28;20032;-70
2023/09/27 04:30:11;;;;;;;15.70;10.82;;;12.60;98.20;;;;;;5036663;28;20064;-69
2023/09/27 04:32:38;;;;;;;15.98;9.45;;;12.50;98.10;;;;;;5036464;28;20076;-70
2023/09/27 04:35:04;;;;;;;15.13;10.38;;;12.50;98.30;;;;;;5031895;28;20466;-70
2023/09/27 04:37:29;;;;;;;12.80;10.00;;;12.40;98.50;;;;;;5029689;28;20056;-69
2023/09/27 04:39:55;;;;;;;13.88;9.50;;;12.30;98.30;;;;;;5029903;28;20017;-69
2023/09/27 04:42:20;;;;;;;16.17;9.77;;;12.20;98.30;;;;;;5021782;28;20163;-71
2023/09/27 04:44:46;;;;;;;14.88;9.13;;;12.10;98.20;;;;;;5024095;28;20049;-69
2023/09/27 04:47:11;;;;;;;12.75;8.60;;;12.10;98.40;;;;;;5023009;28;20549;-69
2023/09/27 04:49:37;;;;;;;12.90;8.77;;;12.00;98.30;;;;;;5018616;28;20033;-69
2023/09/27 04:52:02;;;;;;;11.35;8.48;;;12.10;98.50;;;;;;5028787;28;20037;-70
2023/09/27 04:54:28;;;;;;;12.98;9.25;;;12.00;98.40;;;;;;5027937;28;20048;-71
2023/09/27 04:56:53;;;;;;;13.73;8.32;;;11.90;98.30;;;;;;5022826;28;20044;-70
2023/09/27 04:59:19;;;;;;;12.70;8.43;;;11.90;98.50;;;;;;5028280;28;20095;-71
2023/09/27 05:01:44;;;;;;;10.43;8.30;;;11.80;98.40;;;;;;5024875;28;20037;-70
2023/09/27 05:04:10;;;;;;;14.48;8.18;;;11.60;98.50;;;;;;5019030;28;20470;-71
2023/09/27 05:06:35;;;;;;;11.30;8.68;;;11.60;98.50;;;;;;5030499;28;20041;-70
2023/09/27 05:09:01;;;;;;;12.65;8.98;;;11.60;98.40;;;;;;5030652;28;20437;-69
2023/09/27 05:11:27;;;;;;;12.73;9.35;;;11.50;98.40;;;;;;5024852;28;20117;-70
2023/09/27 05:13:52;;;;;;;14.98;8.93;;;11.50;98.30;;;;;;5025063;28;20037;-70
2023/09/27 05:16:19;;;;;;;12.80;9.25;;;11.50;98.50;;;;;;5029447;28;20037;-71
2023/09/27 05:18:44;;;;;;;14.27;10.18;;;11.40;98.50;;;;;;5023366;28;20041;-70
2023/09/27 05:21:10;;;;;;;13.95;10.30;;;11.50;98.60;;;;;;5030499;28;20029;-69
2023/09/27 05:23:35;;;;;;;19.73;10.18;;;11.40;98.50;;;;;;5030708;28;20036;-69
2023/09/27 05:26:01;;;;;;;14.02;10.02;;;11.40;98.50;;;;;;5020680;28;20045;-69
2023/09/27 05:28:28;;;;;;;13.93;10.02;;;11.40;98.50;;;;;;5025179;28;20068;-70
2023/09/27 05:30:54;;;;;;;14.65;10.45;;;11.30;98.50;;;;;;5028071;28;20035;-71
2023/09/27 05:33:19;;;;;;;14.15;9.23;;;11.40;98.70;;;;;;5025491;28;20037;-69
2023/09/27 05:35:48;;;;;;;13.25;9.05;;;11.40;98.60;;;;;;5026890;28;20037;-69
2023/09/27 05:38:14;;;;;;;16.25;10.50;;;11.40;98.60;;;;;;5027417;28;20026;-70
2023/09/27 05:40:40;;;;;;;14.57;10.15;;;11.50;98.80;;;;;;5021163;28;20033;-70
2023/09/27 05:43:05;;;;;;;13.23;9.63;;;11.60;98.90;;;;;;5026362;28;20462;-69
2023/09/27 05:45:31;;;;;;;16.38;10.85;;;11.60;98.80;;;;;;5027790;28;20033;-68
2023/09/27 05:47:56;;;;;;;18.63;11.40;;;11.50;98.70;;;;;;5029726;28;20032;-68
2023/09/27 05:50:22;;;;;;;16.92;12.02;;;11.60;99.00;;;;;;5022221;28;20080;-68
2023/09/27 05:52:48;;;;;;;21.00;11.77;;;11.60;99.00;;;;;;5029994;28;20029;-68
2023/09/27 05:55:15;;;;;;;19.73;11.70;;;11.70;99.00;;;;;;5030724;28;20030;-69
2023/09/27 05:57:41;;;;;;;18.27;11.88;;;11.70;99.00;;;;;;5021541;28;20350;-69
2023/09/27 06:00:19;;;;;;;18.25;12.20;;;11.70;99.00;;;;;;5023448;28;20120;-70
2023/09/27 06:02:44;;;;;;;18.70;12.45;;;11.80;99.00;;;;;;5021907;28;20029;-69
2023/09/27 06:05:11;;;;;;;18.88;12.43;;;11.80;99.00;;;;;;5022854;28;20122;-69
2023/09/27 06:07:36;;;;;;;24.65;13.02;;;11.80;99.10;;;;;;5019339;28;20026;-70
2023/09/27 06:10:02;;;;;;;22.25;14.00;;;12.10;99.20;;;;;;5022629;28;20124;-69
2023/09/27 06:12:28;;;;;;;23.55;14.77;;;12.20;99.30;;;;;;5027697;28;20413;-71
2023/09/27 06:14:54;;;;;;;21.95;14.27;;;12.30;99.40;;;;;;5030909;28;20148;-69
2023/09/27 06:17:19;;;;;;;23.88;15.50;;;12.40;99.40;;;;;;5030306;28;20087;-70
2023/09/27 06:19:45;;;;;;;26.75;16.20;;;12.40;99.30;;;;;;5031503;28;20087;-68
2023/09/27 06:22:13;;;;;;;23.10;15.25;;;12.50;99.30;;;;;;5029902;28;20064;-69
2023/09/27 06:24:40;;;;;;;25.20;16.33;;;12.50;99.20;;;;;;5027977;28;20057;-68
2023/09/27 06:27:06;;;;;;;23.15;15.55;;;12.60;99.20;;;;;;5030037;28;20482;-69
2023/09/27 06:29:31;;;;;;;22.85;14.63;;;12.60;99.10;;;;;;5028485;28;20033;-69
2023/09/27 06:31:57;;;;;;;25.23;14.82;;;12.70;99.20;;;;;;5028548;28;20087;-69
2023/09/27 06:34:22;;;;;;;23.40;15.13;;;12.80;99.10;;;;;;5026939;28;20021;-69
2023/09/27 06:36:52;;;;;;;22.73;14.95;;;12.90;99.00;;;;;;5031956;28;20036;-69
2023/09/27 06:39:21;;;;;;;25.30;15.00;;;13.00;99.00;;;;;;5030426;28;20041;-70
2023/09/27 06:41:47;;;;;;;23.05;14.82;;;13.10;98.50;;;;;;5028714;28;20034;-70
2023/09/27 06:44:12;;;;;;;23.05;14.75;;;13.10;98.40;;;;;;5028275;28;20037;-69
2023/09/27 06:46:38;;;;;;;24.92;15.65;;;13.30;98.50;;;;;;5031787;28;20044;-68
2023/09/27 06:49:04;;;;;;;21.90;13.88;;;13.40;98.30;;;;;;5030905;28;20037;-70
2023/09/27 06:51:30;;;;;;;19.67;14.25;;;13.40;98.10;;;;;;5030433;28;20112;-68
2023/09/27 06:53:56;;;;;;;21.73;13.90;;;13.50;98.00;;;;;;5021668;28;20038;-70
2023/09/27 06:56:22;;;;;;;22.10;13.75;;;13.60;97.90;;;;;;5028545;28;20048;-71
2023/09/27 06:58:48;;;;;;;20.58;13.55;;;13.60;97.60;;;;;;5026185;28;20064;-68
2023/09/27 07:01:18;;;;;;;19.35;12.57;;;13.70;97.60;;;;;;5021227;28;20076;-67
2023/09/27 07:03:43;;;;;;;18.30;12.48;;;13.80;97.50;;;;;;5020942;28;20040;-66
2023/09/27 07:06:09;;;;;;;18.30;12.00;;;13.90;97.40;;;;;;5031597;28;20029;-66
2023/09/27 07:08:34;;;;;;;15.80;11.85;;;14.00;97.10;;;;;;5025352;28;20030;-66
2023/09/27 07:11:08;;;;;;;16.05;11.20;;;14.00;97.00;;;;;;5030139;28;20029;-66
2023/09/27 07:13:34;;;;;;;14.23;10.88;;;14.10;96.80;;;;;;5026600;28;20033;-66
2023/09/27 07:16:02;;;;;;;17.27;11.00;;;14.10;96.90;;;;;;5023960;28;20037;-66
2023/09/27 07:18:27;;;;;;;15.65;10.60;;;14.20;97.30;;;;;;5028288;28;20493;-65
2023/09/27 07:20:54;;;;;;;17.42;10.50;;;14.40;97.30;;;;;;5032891;28;20591;-66
2023/09/27 07:23:20;;;;;;;16.45;11.77;;;14.60;96.40;;;;;;5022084;28;20080;-67
2023/09/27 07:25:47;;;;;;;15.77;12.32;;;14.70;96.10;;;;;;5028620;28;20064;-67
2023/09/27 07:28:13;;;;;;;17.60;11.85;;;14.70;96.10;;;;;;5028249;28;20065;-66
2023/09/27 07:30:38;;;;;;;14.43;11.68;;;14.80;96.00;;;;;;5025495;28;20464;-66
2023/09/27 07:33:09;;;;;;;14.63;10.52;;;15.00;95.90;;;;;;5028199;28;20048;-67
2023/09/27 07:35:35;;;;;;;15.90;9.63;;;15.00;95.30;;;;;;5030665;28;20057;-66
2023/09/27 07:38:01;;;;;;;12.60;9.57;;;15.20;95.20;;;;;;5030661;28;20433;-67
2023/09/27 07:40:27;;;;;;;13.55;8.73;;;15.30;94.70;;;;;;5024067;28;20037;-66
2023/09/27 07:42:53;;;;;;;10.73;7.95;;;15.40;93.70;;;;;;5026337;28;20111;-66
2023/09/27 07:45:22;;;;;;;13.73;8.45;;;15.50;93.80;;;;;;5023615;28;20037;-66
2023/09/27 07:47:50;;;;;;;10.82;8.25;;;15.50;93.70;;;;;;5028055;28;20075;-65
2023/09/27 07:50:16;;;;;;;9.40;7.32;;;15.50;92.90;;;;;;5030061;28;20088;-67
2023/09/27 07:52:42;;;;;;;12.23;7.43;;;15.70;92.40;;;;;;5030205;28;20533;-65
2023/09/27 07:55:10;;;;;;;9.60;7.40;;;15.80;92.40;;;;;;5028291;28;20474;-66
2023/09/27 07:57:36;;;;;;;9.27;7.30;;;16.00;92.60;;;;;;5017183;28;20539;-66
2023/09/27 08:00:08;;;;;;;12.25;6.82;;;16.10;91.90;;;;;;5026606;28;20030;-66
2023/09/27 08:02:34;;;;;;;13.25;7.43;;;16.10;91.90;;;;;;5028997;28;20104;-67
2023/09/27 08:04:59;;;;;;;11.88;7.22;;;16.20;92.10;;;;;;5025623;28;20121;-66
2023/09/27 08:07:28;;;;;;;12.27;6.68;;;16.30;92.30;;;;;;5021190;28;20026;-66
2023/09/27 08:09:54;;;;;;;10.75;7.50;;;16.40;91.80;;;;;;5022944;28;20044;-67
2023/09/27 08:12:20;;;;;;;9.75;6.80;;;16.60;91.20;;;;;;5020850;28;20034;-67
2023/09/27 08:14:46;;;;;;;8.18;6.57;;;16.80;90.80;;;;;;5026616;28;20043;-66
2023/09/27 08:17:11;;;;;;;8.73;6.43;;;17.00;90.20;;;;;;5028598;28;20038;-65
2023/09/27 08:19:38;;;;;;;9.43;6.32;;;17.10;89.00;;;;;;5028956;28;20053;-66
2023/09/27 08:22:03;;;;;;;8.55;6.05;;;17.30;89.10;;;;;;5030499;28;20033;-66
2023/09/27 08:24:29;;;;;;;8.52;6.00;;;17.50;88.10;;;;;;5019420;28;20033;-66
2023/09/27 08:26:54;;;;;;;9.02;6.22;;;17.60;87.90;;;;;;5029255;28;20114;-66
2023/09/27 08:29:21;;;;;;;7.93;5.72;;;17.70;87.70;;;;;;5023255;28;20129;-66
2023/09/27 08:31:47;;;;;;;8.82;5.93;;;17.90;88.20;;;;;;5027254;28;20022;-67
2023/09/27 08:34:13;;;;;;;8.38;5.45;;;18.00;87.10;;;;;;5026979;28;20026;-66
2023/09/27 08:36:38;;;;;;;8.48;5.47;;;18.30;88.00;;;;;;5031687;28;20029;-67
2023/09/27 08:39:04;;;;;;;9.50;5.38;;;18.40;86.20;;;;;;5031578;28;20043;-66
2023/09/27 08:41:30;;;;;;;9.27;5.65;;;18.60;86.90;;;;;;5031323;28;20025;-66
2023/09/27 08:43:57;;;;;;;9.65;5.57;;;18.70;86.20;;;;;;5030394;28;20040;-66
2023/09/27 08:46:24;;;;;;;9.25;5.03;;;18.80;85.90;;;;;;5030366;28;20033;-67
2023/09/27 08:48:51;;;;;;;6.07;4.53;;;18.80;84.10;;;;;;5031004;28;20025;-66
2023/09/27 08:51:17;;;;;;;7.47;4.20;;;19.00;83.10;;;;;;5030591;28;20071;-66
2023/09/27 08:53:43;;;;;;;8.40;4.22;;;19.10;82.00;;;;;;5030763;28;20466;-66
2023/09/27 08:56:11;;;;;;;6.05;3.78;;;19.20;80.70;;;;;;5032292;28;20060;-67
2023/09/27 08:58:38;;;;;;;9.05;3.80;;;19.30;82.40;;;;;;5024392;28;20037;-66
2023/09/27 09:01:07;;;;;;;6.90;4.35;;;19.60;83.30;;;;;;5031080;28;20087;-69
2023/09/27 09:03:33;;;;;;;5.57;3.78;;;19.70;80.80;;;;;;5030787;28;20034;-66
2023/09/27 09:05:59;;;;;;;6.47;3.80;;;19.80;80.00;;;;;;5029781;28;20045;-67
2023/09/27 09:08:25;;;;;;;5.53;3.58;;;19.90;79.90;;;;;;5027822;28;20025;-66
2023/09/27 09:10:52;;;;;;;5.47;3.65;;;20.10;81.30;;;;;;5025663;28;20025;-67
2023/09/27 09:13:22;;;;;;;8.35;3.67;;;20.40;79.20;;;;;;5023224;28;20035;-66
2023/09/27 09:15:48;;;;;;;4.93;3.30;;;20.70;78.60;;;;;;5028444;28;20485;-66
2023/09/27 09:18:29;;;;;;;4.90;3.67;;;20.70;77.80;;;;;;5032737;28;20040;-67
2023/09/27 09:20:59;;;;;;;6.70;4.35;;;20.70;78.80;;;;;;5027685;28;20040;-67
2023/09/27 09:23:33;;;;;;;6.18;3.70;;;21.00;78.70;;;;;;5028144;28;20088;-67
2023/09/27 09:26:06;;;;;;;6.70;3.97;;;21.00;77.50;;;;;;5029173;28;20051;-66
2023/09/27 09:28:32;;;;;;;8.70;3.97;;;21.30;78.90;;;;;;5026131;28;20531;-65
2023/09/27 09:30:57;;;;;;;5.70;3.40;;;21.30;78.30;;;;;;5027783;28;20037;-66
2023/09/27 09:33:36;;;;;;;4.97;3.47;;;21.30;78.10;;;;;;5018896;28;20030;-66
2023/09/27 09:36:02;;;;;;;5.82;3.63;;;21.50;75.90;;;;;;5025124;28;20186;-66
2023/09/27 09:38:30;;;;;;;4.07;3.05;;;21.50;76.00;;;;;;5019503;28;20514;-66
2023/09/27 09:40:57;;;;;;;6.18;3.20;;;21.50;75.70;;;;;;5020223;28;20113;-67
2023/09/27 09:43:37;;;;;;;5.55;3.05;;;21.60;73.40;;;;;;5018592;28;20343;-68
2023/09/27 09:46:08;;;;;;;5.95;2.75;;;21.50;73.90;;;;;;5019064;28;20034;-66
2023/09/27 09:48:34;;;;;;;4.00;2.42;;;21.50;74.30;;;;;;5024622;28;20037;-67
2023/09/27 09:51:03;;;;;;;5.70;2.33;;;21.70;73.40;;;;;;5020229;28;20172;-66
2023/09/27 09:53:29;;;;;;;5.63;2.20;;;21.80;73.70;;;;;;5018779;28;20398;-67
2023/09/27 09:55:59;;;;;;;3.47;2.10;;;22.10;73.80;;;;;;5029976;28;20041;-66
2023/09/27 09:58:32;;;;;;;3.15;2.00;;;22.30;70.80;;;;;;5029196;28;20382;-66
2023/09/27 10:01:01;;;;;;;3.05;2.00;;;22.50;74.30;;;;;;5031823;28;20481;-66
2023/09/27 10:03:31;;;;;;;2.35;1.70;;;22.90;71.00;;;;;;5029996;28;20037;-67
2023/09/27 10:06:04;;;;;;;3.65;2.00;;;23.10;70.10;;;;;;5030521;28;20044;-66
2023/09/27 10:08:38;;;;;;;2.47;1.85;;;23.20;69.40;;;;;;5025679;28;20517;-66
2023/09/27 10:11:05;;;;;;;3.08;1.65;;;23.30;67.50;;;;;;5022514;28;20482;-66
2023/09/27 10:13:39;;;;;;;3.05;1.85;;;23.50;68.00;;;;;;5029697;28;20396;-66
2023/09/27 10:16:06;;;;;;;4.10;1.75;;;23.40;68.40;;;;;;5031436;28;20048;-66
2023/09/27 10:18:36;;;;;;;3.83;1.85;;;23.10;68.40;;;;;;5031597;28;20033;-66
2023/09/27 10:21:02;;;;;;;4.73;2.13;;;23.00;68.10;;;;;;5030970;28;20034;-66
2023/09/27 10:23:53;;;;;;;4.07;1.90;;;22.90;68.00;;;;;;5031301;28;20330;-67
2023/09/27 10:26:28;;;;;;;3.28;2.00;;;23.20;68.50;;;;;;5025347;28;20049;-66
2023/09/27 10:29:16;;;;;;;2.42;1.77;;;23.20;69.40;;;;;;5018259;28;20060;-68
2023/09/27 10:31:54;;;;;;;3.92;1.83;;;23.30;68.90;;;;;;5031668;28;20030;-66
2023/09/27 10:34:25;;;;;;;4.72;2.45;;;23.50;67.90;;;;;;5028979;28;20553;-67
2023/09/27 10:36:52;;;;;;;5.35;2.13;;;23.40;67.50;;;;;;5019271;28;20088;-66
2023/09/27 10:39:17;;;;;;;4.60;1.90;;;23.10;69.30;;;;;;5031338;28;20034;-66
2023/09/27 10:41:46;;;;;;;4.82;2.13;;;23.00;69.90;;;;;;5029927;28;20044;-66
2023/09/27 10:44:13;;;;;;;4.50;2.13;;;22.90;68.40;;;;;;5028783;28;20501;-66
2023/09/27 10:46:43;;;;;;;3.58;2.00;;;22.80;69.40;;;;;;5029001;28;20132;-67
2023/09/27 10:49:09;;;;;;;3.25;1.85;;;22.80;70.50;;;;;;5031280;28;20065;-67
2023/09/27 10:51:35;;;;;;;3.47;1.80;;;22.90;69.30;;;;;;5028469;28;20041;-68
2023/09/27 10:54:06;;;;;;;3.95;1.63;;;23.00;68.20;;;;;;5022454;28;20406;-67
2023/09/27 10:56:32;;;;;;;3.88;2.28;;;23.20;70.60;;;;;;5027172;28;20120;-66
2023/09/27 10:58:57;;;;;;;3.95;2.20;;;23.50;69.10;;;;;;5023247;28;20534;-67
2023/09/27 11:01:23;;;;;;;5.35;2.28;;;23.10;65.90;;;;;;5031251;28;20033;-67
2023/09/27 11:04:02;;;;;;;3.67;2.00;;;23.00;67.90;;;;;;5028002;28;20033;-66
2023/09/27 11:06:30;;;;;;;5.13;1.70;;;23.30;66.90;;;;;;5023651;28;20045;-67
2023/09/27 11:09:06;;;;;;;3.75;1.98;;;23.20;68.20;;;;;;5027099;28;20082;-67
2023/09/27 11:11:33;;;;;;;3.53;2.10;;;23.30;67.90;;;;;;5028114;28;20449;-68
2023/09/27 11:13:59;;;;;;;6.80;1.90;;;23.40;65.10;;;;;;5023934;28;20034;-68
2023/09/27 11:16:24;;;;;;;2.72;1.80;;;23.70;66.80;;;;;;5028590;28;20033;-67
2023/09/27 11:18:51;;;;;;;3.50;1.90;;;23.90;64.70;;;;;;5025947;28;20034;-67
2023/09/27 11:21:19;;;;;;;3.85;1.98;;;24.00;65.30;;;;;;5030900;28;20028;-67
2023/09/27 11:23:58;;;;;;;3.22;1.83;;;24.20;63.50;;;;;;5025479;28;20383;-67
2023/09/27 11:26:25;;;;;;;3.45;2.00;;;24.10;62.40;;;;;;5027091;28;20060;-68
2023/09/27 11:29:01;;;;;;;3.15;1.90;;;24.40;63.50;;;;;;5025677;28;20068;-66
2023/09/27 11:31:37;;;;;;;2.90;1.65;;;24.80;62.60;;;;;;5021144;28;20040;-67
2023/09/27 11:34:30;;;;;;;3.97;1.88;;;24.90;62.20;;;;;;5027427;28;20025;-67
2023/09/27 11:37:02;;;;;;;2.13;1.80;;;25.00;60.70;;;;;;5025153;28;20038;-67
2023/09/27 11:39:45;;;;;;;3.65;1.90;;;25.00;61.20;;;;;;5030247;28;20022;-68
2023/09/27 11:42:11;;;;;;;3.75;1.73;;;25.00;61.30;;;;;;5021469;28;20034;-67
2023/09/27 11:44:37;;;;;;;3.13;1.55;;;25.00;61.10;;;;;;5012986;28;20041;-68
2023/09/27 11:47:05;;;;;;;3.97;1.42;;;24.90;59.00;;;;;;5029928;28;20041;-67
2023/09/27 11:49:30;;;;;;;3.67;1.75;;;24.90;60.20;;;;;;5030303;28;20030;-68
2023/09/27 11:51:56;;;;;;;3.13;1.90;;;25.00;61.70;;;;;;5024194;28;20040;-67
2023/09/27 11:54:21;;;;;;;3.03;1.70;;;25.50;59.80;;;;;;5028832;28;20471;-67
2023/09/27 11:56:47;;;;;;;2.08;1.50;;;25.90;58.90;;;;;;5021753;28;20080;-67
2023/09/27 11:59:12;;;;;;;4.32;1.70;;;25.90;59.00;;;;;;5019704;28;20030;-68
2023/09/27 12:01:39;;;;;;;3.50;1.38;;;26.00;57.30;;;;;;5025201;28;20359;-67
2023/09/27 12:04:05;;;;;;;3.03;1.75;;;26.20;56.30;;;;;;5026335;28;20359;-67
2023/09/27 12:06:31;;;;;;;4.45;2.05;;;25.90;55.90;;;;;;5033627;28;20040;-67
2023/09/27 12:08:58;;;;;;;5.57;1.70;;;25.40;57.20;;;;;;5026996;28;20572;-67
2023/09/27 12:11:24;;;;;;;4.82;1.60;;;25.50;57.60;;;;;;5029497;28;20378;-67
2023/09/27 12:13:51;;;;;;;4.10;1.80;;;25.40;59.20;;;;;;5019020;28;20029;-68
2023/09/27 12:16:18;;;;;;;3.45;1.70;;;25.70;60.80;;;;;;5028762;28;20052;-68
2023/09/27 12:18:44;;;;;;;2.25;1.42;;;25.60;57.10;;;;;;5029877;28;20041;-70
2023/09/27 12:21:10;;;;;;;2.60;1.42;;;25.80;59.00;;;;;;5025706;28;20028;-67
2023/09/27 12:23:35;;;;;;;3.35;1.80;;;26.10;59.00;;;;;;5024020;28;20029;-67
2023/09/27 12:26:01;;;;;;;2.63;1.50;;;25.80;56.40;;;;;;5031840;28;20053;-67
2023/09/27 12:28:26;;;;;;;2.75;1.60;;;25.50;59.40;;;;;;5027635;28;20470;-67
2023/09/27 12:30:52;;;;;;;2.97;2.10;;;25.40;57.10;;;;;;5020663;28;20362;-69
2023/09/27 12:33:17;;;;;;;5.05;2.10;;;25.30;57.20;;;;;;5019502;28;20056;-66
2023/09/27 12:35:44;;;;;;;3.47;1.70;;;25.60;57.60;;;;;;5027087;28;20037;-67
2023/09/27 12:38:10;;;;;;;2.50;1.52;;;26.20;55.60;;;;;;5020216;28;20088;-67